Time;durP1;ratioP1;P1;durP2;ratioP2;P2;SDS_P1;SDS_P2;PMS_P1;PMS_P2;Temp;Humidity;BMP_temperature;BMP_pressure;BME280_temperature;BME280_humidity;BME280_pressure;Samples;Min_cycle;Max_cycle;Signal;HPM_P1;HPM_P2
2021/07/30 00:00:12;;;;;;;15.55;6.10;;;;;;;17.22;58.11;100984.28;10487261;28;20056;-75
2021/07/30 00:05:12;;;;;;;11.50;5.43;;;;;;;17.30;57.77;100995.69;10487411;28;20063;-75
2021/07/30 00:10:13;;;;;;;14.15;6.03;;;;;;;17.06;58.36;100974.88;10489726;28;20029;-75
2021/07/30 00:15:13;;;;;;;10.45;5.13;;;;;;;17.12;58.41;100968.47;10455652;28;20146;-75
2021/07/30 00:20:14;;;;;;;10.13;5.55;;;;;;;17.25;57.65;100976.41;10491740;28;20446;-75
2021/07/30 00:25:14;;;;;;;13.60;6.20;;;;;;;17.13;58.98;100970.97;10491300;28;20123;-75
2021/07/30 00:30:14;;;;;;;8.73;5.50;;;;;;;16.86;57.71;100926.84;10489317;28;20048;-75
2021/07/30 00:35:15;;;;;;;22.60;5.55;;;;;;;17.23;57.79;100978.56;10474706;28;20052;-75
2021/07/30 00:40:15;;;;;;;10.00;5.15;;;;;;;17.12;57.84;100974.75;10474451;28;20036;-75
2021/07/30 00:45:16;;;;;;;6.80;4.45;;;;;;;17.19;58.36;100980.09;10492610;28;20048;-75
2021/07/30 00:50:17;;;;;;;11.00;5.20;;;;;;;17.19;58.25;100963.69;10472858;28;20029;-75
2021/07/30 00:55:17;;;;;;;7.22;4.18;;;;;;;17.00;58.99;100938.34;10492294;28;20073;-75
2021/07/30 01:00:21;;;;;;;11.93;4.95;;;;;;;17.18;58.08;100949.16;10490430;28;20072;-75
2021/07/30 01:05:21;;;;;;;6.40;4.38;;;;;;;17.08;58.46;100956.34;10473230;28;20029;-75
2021/07/30 01:10:22;;;;;;;6.28;4.18;;;;;;;17.09;58.53;100969.75;10470219;28;20024;-75
2021/07/30 01:15:23;;;;;;;6.70;4.45;;;;;;;16.58;60.50;100899.34;10487810;28;20033;-75
2021/07/30 01:20:24;;;;;;;10.25;4.38;;;;;;;17.03;58.78;100964.41;10476979;28;20036;-75
2021/07/30 01:25:26;;;;;;;9.05;4.93;;;;;;;16.96;59.49;100965.38;10477701;28;20032;-75
2021/07/30 01:30:26;;;;;;;7.18;5.65;;;;;;;16.82;59.93;100938.50;10477456;28;20060;-75
2021/07/30 01:35:27;;;;;;;6.57;5.15;;;;;;;16.98;59.29;100964.31;10495444;28;20044;-75
2021/07/30 01:40:27;;;;;;;13.13;5.50;;;;;;;16.78;60.96;100962.75;10494530;28;20041;-75
2021/07/30 01:45:27;;;;;;;4.43;3.97;;;;;;;16.83;60.06;100948.38;10460321;28;20129;-75
2021/07/30 01:50:28;;;;;;;12.88;5.72;;;;;;;16.72;59.91;100928.13;10493082;28;20123;-75
2021/07/30 01:55:28;;;;;;;11.63;5.47;;;;;;;16.75;59.96;100935.88;10474141;28;20045;-75
2021/07/30 02:00:29;;;;;;;12.50;4.68;;;;;;;16.89;60.09;100956.47;10474258;28;20102;-75
2021/07/30 02:05:29;;;;;;;14.20;5.63;;;;;;;16.72;59.68;100939.91;10474905;28;20143;-75
2021/07/30 02:10:30;;;;;;;7.03;5.53;;;;;;;16.80;59.20;100938.72;10494364;28;20360;-75
2021/07/30 02:15:30;;;;;;;11.40;5.28;;;;;;;16.68;59.65;100944.16;10494329;28;20119;-75
2021/07/30 02:20:31;;;;;;;9.30;4.60;;;;;;;16.63;59.93;100945.97;10492601;28;20036;-75
2021/07/30 02:25:31;;;;;;;19.33;7.45;;;;;;;16.14;60.05;100868.75;10492332;28;20081;-75
2021/07/30 02:30:32;;;;;;;9.25;5.57;;;;;;;16.41;60.98;100919.19;10491839;28;20421;-75
2021/07/30 02:35:32;;;;;;;10.07;4.65;;;;;;;16.37;61.65;100926.19;10477500;28;20087;-75
2021/07/30 02:40:34;;;;;;;10.10;5.65;;;;;;;16.19;61.10;100888.03;10493428;28;20438;-75
2021/07/30 02:45:34;;;;;;;18.25;5.88;;;;;;;16.47;61.25;100933.81;10492951;28;20037;-77
2021/07/30 02:50:35;;;;;;;16.42;6.20;;;;;;;16.39;60.55;100912.28;10491338;28;20036;-75
2021/07/30 02:55:35;;;;;;;9.30;5.97;;;;;;;16.21;60.51;100883.16;10491989;28;20088;-75
2021/07/30 03:00:36;;;;;;;13.13;6.95;;;;;;;16.36;60.73;100908.13;10491586;28;20032;-75
2021/07/30 03:05:36;;;;;;;10.73;6.38;;;;;;;16.21;60.77;100878.53;10488233;28;20424;-75
2021/07/30 03:10:36;;;;;;;10.70;6.47;;;;;;;15.89;60.14;100825.25;10487117;28;20154;-75
2021/07/30 03:15:37;;;;;;;9.73;5.90;;;;;;;16.36;61.18;100899.09;10469156;28;20435;-77
2021/07/30 03:20:37;;;;;;;14.35;7.15;;;;;;;16.47;60.52;100901.03;10470978;28;20024;-75
2021/07/30 03:25:38;;;;;;;19.77;8.70;;;;;;;16.52;60.51;100899.22;10468242;28;20158;-75
2021/07/30 03:30:38;;;;;;;10.82;7.00;;;;;;;16.59;60.52;100898.28;10487921;28;20052;-75
2021/07/30 03:35:39;;;;;;;11.23;6.93;;;;;;;16.55;60.92;100877.94;10490492;28;20490;-75
2021/07/30 03:40:42;;;;;;;15.48;6.68;;;;;;;16.33;60.69;100826.59;10490385;28;20049;-75
2021/07/30 03:45:42;;;;;;;9.13;5.78;;;;;;;16.58;60.83;100861.06;10486913;28;20108;-76
2021/07/30 03:50:42;;;;;;;15.35;6.63;;;;;;;16.56;60.73;100833.13;10487827;28;20043;-76
2021/07/30 03:55:43;;;;;;;14.95;8.52;;;;;;;17.12;60.61;100898.13;10470363;28;20369;-75
2021/07/30 04:00:43;;;;;;;12.63;5.85;;;;;;;16.82;60.35;100832.69;10487516;28;20033;-75
2021/07/30 04:05:44;;;;;;;14.68;6.38;;;;;;;17.23;61.03;100891.00;10489719;28;20105;-75
2021/07/30 04:10:44;;;;;;;11.40;6.20;;;;;;;17.30;61.24;100886.22;10471045;28;20421;-75
2021/07/30 04:15:45;;;;;;;29.42;6.80;;;;;;;17.47;61.03;100874.50;10489884;28;20068;-76
2021/07/30 04:20:45;;;;;;;5.22;4.47;;;;;;;17.65;60.24;100869.66;10473830;28;20123;-75
2021/07/30 04:25:46;;;;;;;9.60;6.22;;;;;;;17.74;60.12;100870.09;10458526;28;20201;-75
2021/07/30 04:30:46;;;;;;;9.65;6.63;;;;;;;17.72;60.49;100866.75;10493357;28;20052;-75
2021/07/30 04:35:46;;;;;;;11.55;6.70;;;;;;;17.87;60.12;100856.13;10498797;28;20036;-75
2021/07/30 04:40:47;;;;;;;11.07;6.60;;;;;;;17.85;61.46;100854.69;10480700;28;20036;-75
2021/07/30 04:45:47;;;;;;;10.27;6.18;;;;;;;17.97;60.33;100849.16;10498572;28;20043;-76
2021/07/30 04:50:48;;;;;;;7.93;6.03;;;;;;;17.67;59.75;100768.06;10480316;28;20029;-75
2021/07/30 04:55:48;;;;;;;11.63;7.78;;;;;;;18.03;59.66;100826.25;10498853;28;20045;-74
2021/07/30 05:00:48;;;;;;;8.77;4.53;;;;;;;17.73;59.62;100769.81;10480321;28;20036;-75
2021/07/30 05:05:49;;;;;;;11.43;6.18;;;;;;;18.12;58.82;100802.81;10498642;28;20058;-75
2021/07/30 05:10:50;;;;;;;7.55;5.28;;;;;;;18.26;59.32;100848.00;10498078;28;20033;-74
2021/07/30 05:15:50;;;;;;;9.80;5.13;;;;;;;17.83;60.18;100800.13;10498404;28;20438;-75
2021/07/30 05:20:50;;;;;;;10.20;5.88;;;;;;;18.01;61.01;100840.19;10498658;28;20044;-75
2021/07/30 05:25:54;;;;;;;8.98;6.63;;;;;;;17.64;60.97;100757.59;10480633;28;20041;-74
2021/07/30 05:30:57;;;;;;;7.65;5.13;;;;;;;17.94;62.43;100839.53;10461678;28;20106;-74
2021/07/30 05:35:58;;;;;;;9.75;5.32;;;;;;;18.24;62.69;100824.66;10474237;28;20037;-75
2021/07/30 05:40:58;;;;;;;9.43;6.45;;;;;;;18.76;60.64;100832.56;10493304;28;20428;-74
2021/07/30 05:46:00;;;;;;;14.57;6.68;;;;;;;19.26;59.46;100832.38;10494737;28;20036;-75
2021/07/30 05:51:01;;;;;;;11.30;5.13;;;;;;;19.33;58.26;100840.41;10472737;28;20078;-74
2021/07/30 05:56:01;;;;;;;7.75;4.82;;;;;;;19.39;58.77;100817.41;10468910;28;20051;-74
2021/07/30 06:01:02;;;;;;;20.17;5.80;;;;;;;18.93;57.92;100747.47;10488301;28;20032;-74
2021/07/30 06:06:02;;;;;;;13.40;5.97;;;;;;;19.63;57.17;100822.63;10476000;28;20379;-74
2021/07/30 06:11:04;;;;;;;5.72;4.78;;;;;;;19.63;56.81;100811.63;10494233;28;20424;-75
2021/07/30 06:16:10;;;;;;;10.35;5.00;;;;;;;20.17;56.10;100798.66;10496142;28;20452;-75
2021/07/30 06:21:11;;;;;;;5.93;5.43;;;;;;;19.70;55.56;100727.09;10494062;28;20433;-74
2021/07/30 06:26:11;;;;;;;12.88;6.15;;;;;;;19.79;55.98;100749.44;10491809;28;20077;-75
2021/07/30 06:31:12;;;;;;;13.23;5.88;;;;;;;19.79;55.84;100793.41;10475178;28;20071;-75
2021/07/30 06:36:15;;;;;;;5.85;3.75;;;;;;;19.97;56.18;100773.75;10489951;28;20201;-74
2021/07/30 06:41:15;;;;;;;5.47;4.72;;;;;;;19.93;55.00;100767.13;10495717;28;20040;-74
2021/07/30 06:46:16;;;;;;;5.47;4.28;;;;;;;20.33;54.90;100787.75;10475535;28;20068;-75
2021/07/30 06:51:16;;;;;;;21.85;5.30;;;;;;;20.41;54.34;100779.00;10493167;28;20102;-75
2021/07/30 06:56:18;;;;;;;7.57;4.78;;;;;;;20.46;53.43;100784.53;10455931;28;20486;-74
2021/07/30 07:01:18;;;;;;;10.32;4.78;;;;;;;20.76;52.68;100783.06;10491987;28;20124;-74
2021/07/30 07:06:18;;;;;;;10.30;4.68;;;;;;;20.94;52.72;100768.84;10492467;28;20032;-75
2021/07/30 07:11:19;;;;;;;11.18;5.35;;;;;;;20.77;55.24;100765.44;10491919;28;20033;-74
2021/07/30 07:16:20;;;;;;;12.70;4.38;;;;;;;21.33;52.94;100757.38;10489682;28;20032;-74
2021/07/30 07:21:20;;;;;;;9.13;5.60;;;;;;;21.53;51.62;100734.56;10491363;28;20037;-74
2021/07/30 07:26:21;;;;;;;8.95;4.47;;;;;;;21.87;50.82;100729.31;10490617;28;20045;-74
2021/07/30 07:31:21;;;;;;;21.00;5.70;;;;;;;22.02;51.58;100731.25;10490406;28;20144;-74
2021/07/30 07:36:21;;;;;;;5.40;4.38;;;;;;;22.84;50.12;100729.06;10472936;28;20140;-74
2021/07/30 07:41:24;;;;;;;10.55;6.13;;;;;;;22.68;49.15;100713.66;10489529;28;20375;-74
2021/07/30 07:46:25;;;;;;;9.75;5.03;;;;;;;22.31;50.50;100711.34;10489356;28;20129;-74
2021/07/30 07:51:25;;;;;;;14.20;5.88;;;;;;;22.66;51.05;100691.06;10488602;28;20099;-75
2021/07/30 07:56:26;;;;;;;5.78;4.18;;;;;;;22.23;50.86;100671.34;10488064;28;20106;-75
2021/07/30 08:01:26;;;;;;;6.50;4.50;;;;;;;22.59;49.49;100646.38;10488796;28;20047;-74
2021/07/30 08:06:26;;;;;;;9.55;4.30;;;;;;;22.78;54.62;100669.44;10489617;28;20444;-74
2021/07/30 08:11:27;;;;;;;4.60;3.25;;;;;;;23.47;51.95;100711.03;10491197;28;20028;-74
2021/07/30 08:16:27;;;;;;;5.35;3.65;;;;;;;25.06;46.71;100705.44;10491519;28;20064;-74
2021/07/30 08:21:30;;;;;;;12.13;4.75;;;;;;;25.54;47.96;100696.13;10488800;28;20048;-74
2021/07/30 08:26:30;;;;;;;5.97;3.38;;;;;;;24.73;47.55;100682.31;10489947;28;20128;-74
2021/07/30 08:31:31;;;;;;;6.72;3.17;;;;;;;25.01;53.25;100692.44;10490875;28;20444;-74
2021/07/30 08:36:31;;;;;;;5.43;3.97;;;;;;;25.11;47.29;100690.66;10491656;28;20044;-74
2021/07/30 08:41:32;;;;;;;10.60;3.45;;;;;;;24.29;47.17;100605.94;10473521;28;20190;-74
2021/07/30 08:46:33;;;;;;;9.88;3.15;;;;;;;24.67;46.92;100670.53;10470803;28;20166;-75
2021/07/30 08:51:33;;;;;;;4.38;3.05;;;;;;;24.61;47.23;100641.25;10488560;28;20120;-75
2021/07/30 08:56:37;;;;;;;6.22;3.63;;;;;;;24.96;45.97;100652.94;10438245;28;20028;-75
2021/07/30 09:01:38;;;;;;;5.93;3.47;;;;;;;24.71;45.73;100585.72;10471760;28;20043;-75
2021/07/30 09:06:38;;;;;;;2.67;2.47;;;;;;;24.54;48.65;100638.84;10491143;28;20436;-75
2021/07/30 09:11:39;;;;;;;3.58;3.03;;;;;;;24.34;47.11;100608.63;10492512;28;20190;-75
2021/07/30 09:16:50;;;;;;;6.13;3.28;;;;;;;24.71;47.86;100591.25;10472548;28;20040;-75
2021/07/30 09:22:04;;;;;;;19.00;3.75;;;;;;;24.16;49.64;100570.72;10492107;28;20451;-75
2021/07/30 09:27:07;;;;;;;7.78;3.22;;;;;;;24.56;48.14;100622.75;10490940;28;20040;-75
2021/07/30 09:32:14;;;;;;;3.40;3.13;;;;;;;23.94;47.71;100596.97;10491780;28;20060;-75
2021/07/30 09:37:22;;;;;;;10.05;3.67;;;;;;;23.80;49.38;100594.09;10494024;28;20036;-75
2021/07/30 09:42:30;;;;;;;4.88;4.32;;;;;;;24.59;47.18;100618.56;10481835;28;20138;-75
2021/07/30 09:47:33;;;;;;;2.97;2.70;;;;;;;24.25;48.07;100611.25;10481641;28;20163;-74
2021/07/30 09:52:39;;;;;;;4.28;3.58;;;;;;;24.93;47.75;100614.75;10502075;28;20032;-74
2021/07/30 09:57:40;;;;;;;13.27;3.33;;;;;;;24.73;47.12;100577.94;10501996;28;20439;-74
2021/07/30 10:02:44;;;;;;;5.95;3.30;;;;;;;25.80;45.74;100591.91;10466716;28;20166;-75
2021/07/30 10:07:45;;;;;;;5.07;2.67;;;;;;;26.27;46.14;100606.53;10465424;28;20429;-75
2021/07/30 10:12:52;;;;;;;3.30;2.45;;;;;;;26.65;45.86;100614.63;10498678;28;20234;-75
2021/07/30 10:17:56;;;;;;;3.97;2.83;;;;;;;25.28;48.72;100539.38;10499083;28;20408;-75
2021/07/30 10:23:09;;;;;;;4.18;2.50;;;;;;;25.51;48.00;100604.09;10498089;28;20443;-75
2021/07/30 10:28:19;;;;;;;4.18;3.08;;;;;;;24.99;47.06;100563.69;10461742;28;20068;-74
2021/07/30 10:33:33;;;;;;;5.65;3.55;;;;;;;24.58;51.92;100592.84;10477570;28;20085;-74
2021/07/30 10:38:34;;;;;;;6.07;3.80;;;;;;;24.19;48.25;100579.22;10500254;28;20041;-75
2021/07/30 10:43:49;;;;;;;8.88;3.60;;;;;;;23.79;51.61;100584.13;10501072;28;20350;-74
2021/07/30 10:48:56;;;;;;;2.85;2.60;;;;;;;23.86;51.12;100570.75;10499076;28;20111;-74
2021/07/30 10:53:57;;;;;;;5.70;3.40;;;;;;;24.20;49.23;100586.41;10480544;28;20036;-75
2021/07/30 10:58:58;;;;;;;5.68;3.10;;;;;;;24.14;53.17;100582.88;10497047;28;20112;-74
2021/07/30 11:04:07;;;;;;;3.45;3.25;;;;;;;24.07;49.94;100576.06;10495756;28;20040;-75
2021/07/30 11:09:08;;;;;;;11.63;3.60;;;;;;;24.03;50.24;100572.25;10494908;28;20040;-75
2021/07/30 11:14:25;;;;;;;5.13;3.35;;;;;;;23.60;50.33;100591.50;10495637;28;20055;-75
2021/07/30 11:19:26;;;;;;;6.68;4.28;;;;;;;22.68;51.20;100545.28;10474437;28;20032;-75
2021/07/30 11:24:26;;;;;;;6.53;3.65;;;;;;;22.81;52.28;100597.09;10494391;28;20434;-75
2021/07/30 11:29:27;;;;;;;5.53;3.45;;;;;;;23.40;54.13;100601.63;10492442;28;20060;-75
2021/07/30 11:34:29;;;;;;;4.75;4.35;;;;;;;24.11;50.71;100590.94;10465337;28;20048;-75
2021/07/30 11:39:33;;;;;;;6.00;4.53;;;;;;;23.10;53.10;100522.63;10477916;28;20086;-75
2021/07/30 11:45:04;;;;;;;3.67;3.40;;;;;;;23.40;52.56;100587.81;10475801;28;20372;-74
2021/07/30 11:50:06;;;;;;;11.65;4.90;;;;;;;24.42;50.49;100596.13;10473585;28;20494;-75
2021/07/30 11:55:16;;;;;;;5.30;4.07;;;;;;;24.66;51.72;100607.94;10475675;28;20160;-74
2021/07/30 12:00:26;;;;;;;4.10;3.80;;;;;;;24.50;51.66;100601.78;10492449;28;20522;-75
2021/07/30 12:05:31;;;;;;;5.47;5.05;;;;;;;24.01;53.07;100599.38;10491081;28;20440;-74
2021/07/30 12:10:32;;;;;;;7.25;5.43;;;;;;;23.42;54.51;100602.19;10474748;28;20028;-74
2021/07/30 12:15:32;;;;;;;6.05;5.18;;;;;;;22.81;56.57;100596.28;10491558;28;20112;-74
2021/07/30 12:20:34;;;;;;;8.02;6.07;;;;;;;22.16;57.83;100599.13;10489947;28;20056;-75
2021/07/30 12:25:45;;;;;;;7.25;5.47;;;;;;;22.05;59.90;100610.16;10456438;28;20041;-75
2021/07/30 12:30:48;;;;;;;11.00;4.82;;;;;;;21.32;62.19;100579.44;10492215;28;20084;-75
2021/07/30 12:35:48;;;;;;;8.48;3.70;;;;;;;20.78;65.92;100608.31;10475021;28;20040;-75
2021/07/30 12:40:49;;;;;;;12.80;6.28;;;;;;;20.93;64.18;100593.78;10474637;28;20056;-76
2021/07/30 12:45:49;;;;;;;7.38;5.78;;;;;;;20.84;64.51;100603.66;10459220;28;20036;-75
2021/07/30 12:50:50;;;;;;;6.82;5.72;;;;;;;20.45;63.55;100549.06;10490178;28;20047;-76
2021/07/30 12:56:05;;;;;;;12.00;8.63;;;;;;;20.78;64.09;100610.25;10491428;28;20055;-76
2021/07/30 13:01:13;;;;;;;8.82;7.05;;;;;;;20.82;63.62;100611.34;10492736;28;20036;-76
2021/07/30 13:06:21;;;;;;;11.45;8.90;;;;;;;20.94;65.57;100572.56;10473787;28;20052;-76
2021/07/30 13:11:23;;;;;;;10.63;6.95;;;;;;;22.50;61.80;100566.13;10462317;28;20029;-76
2021/07/30 13:16:23;;;;;;;6.40;5.80;;;;;;;23.13;60.68;100555.19;10483038;28;20356;-76
2021/07/30 13:21:24;;;;;;;7.10;6.50;;;;;;;23.58;59.81;100532.91;10497729;28;20086;-76
2021/07/30 13:26:24;;;;;;;16.52;7.78;;;;;;;23.26;61.60;100534.38;10484534;28;20123;-76
2021/07/30 13:31:24;;;;;;;17.45;8.07;;;;;;;22.69;62.05;100520.19;10500318;28;20201;-76
2021/07/30 13:36:25;;;;;;;6.75;6.07;;;;;;;22.68;59.99;100503.91;10499559;28;20037;-76
2021/07/30 13:41:25;;;;;;;10.00;8.05;;;;;;;22.47;61.30;100514.28;10500093;28;20047;-76
2021/07/30 13:46:26;;;;;;;10.55;7.15;;;;;;;22.45;61.82;100481.44;10499607;28;20056;-75
2021/07/30 13:51:26;;;;;;;7.45;6.68;;;;;;;23.20;60.42;100441.59;10499717;28;20605;-75
2021/07/30 13:56:26;;;;;;;18.90;6.28;;;;;;;22.97;59.06;100355.69;10480372;28;20070;-75
2021/07/30 14:01:27;;;;;;;4.18;3.78;;;;;;;23.56;58.61;100477.13;10481343;28;20072;-75
2021/07/30 14:06:29;;;;;;;6.25;4.05;;;;;;;22.82;59.58;100449.69;10501001;28;20143;-75
2021/07/30 14:11:30;;;;;;;9.82;4.93;;;;;;;22.47;61.36;100492.19;10481040;28;20033;-75
2021/07/30 14:16:30;;;;;;;5.07;4.70;;;;;;;21.71;62.52;100509.94;10498752;28;20139;-75
2021/07/30 14:21:32;;;;;;;6.57;4.82;;;;;;;21.44;63.71;100524.91;10498724;28;20066;-76
2021/07/30 14:26:32;;;;;;;4.22;3.22;;;;;;;21.22;64.40;100494.06;10500943;28;20041;-75
2021/07/30 14:31:33;;;;;;;4.65;4.18;;;;;;;22.08;63.46;100504.00;10479354;28;20146;-76
2021/07/30 14:36:33;;;;;;;6.05;5.00;;;;;;;22.43;66.04;100493.88;10498223;28;20081;-76
2021/07/30 14:41:33;;;;;;;7.78;4.22;;;;;;;23.12;62.79;100470.69;10496266;28;20089;-76
2021/07/30 14:46:34;;;;;;;4.80;3.38;;;;;;;24.03;59.99;100475.44;10496565;28;20394;-76
2021/07/30 14:51:34;;;;;;;7.55;3.80;;;;;;;24.29;57.51;100479.47;10495885;28;20201;-75
2021/07/30 14:56:36;;;;;;;4.18;1.98;;;;;;;23.86;56.19;100454.63;10477945;28;20198;-75
2021/07/30 15:01:37;;;;;;;3.78;1.98;;;;;;;24.05;54.80;100479.53;10475964;28;20045;-75
2021/07/30 15:06:38;;;;;;;17.85;3.63;;;;;;;23.70;53.91;100467.00;10477486;28;20037;-75
2021/07/30 15:11:43;;;;;;;3.42;1.77;;;;;;;23.23;55.15;100402.34;10478586;28;20037;-75
2021/07/30 15:16:44;;;;;;;2.70;1.83;;;;;;;23.74;54.01;100428.53;10478264;28;20126;-75
2021/07/30 15:21:45;;;;;;;4.95;2.28;;;;;;;23.91;52.10;100456.50;10477555;28;20476;-74
2021/07/30 15:26:45;;;;;;;3.45;2.17;;;;;;;24.01;52.20;100452.78;10495121;28;20150;-75
2021/07/30 15:31:45;;;;;;;4.13;2.38;;;;;;;23.70;52.82;100447.66;10494422;28;20119;-75
2021/07/30 15:36:49;;;;;;;1.15;1.15;;;;;;;23.31;50.31;100364.94;10477642;28;20120;-74
2021/07/30 15:41:50;;;;;;;2.15;1.60;;;;;;;23.01;51.14;100429.66;10496528;28;20075;-74
2021/07/30 15:46:50;;;;;;;1.52;1.42;;;;;;;22.41;49.81;100444.50;10494119;28;20415;-74
2021/07/30 15:51:51;;;;;;;1.35;1.30;;;;;;;22.19;50.78;100466.19;10459979;28;20039;-74
2021/07/30 15:56:51;;;;;;;9.43;2.25;;;;;;;22.42;51.84;100443.38;10495939;28;20448;-74
2021/07/30 16:01:52;;;;;;;0.90;0.90;;;;;;;23.51;49.42;100438.47;10496571;28;20032;-75
2021/07/30 16:06:52;;;;;;;2.05;1.20;;;;;;;24.24;47.33;100432.50;10478042;28;20518;-74
2021/07/30 16:11:52;;;;;;;1.70;1.52;;;;;;;23.93;46.12;100421.09;10494896;28;20470;-74
2021/07/30 16:16:53;;;;;;;8.57;1.88;;;;;;;23.74;45.96;100409.16;10494611;28;20063;-75
2021/07/30 16:21:53;;;;;;;2.60;1.77;;;;;;;24.10;45.05;100428.84;10492375;28;20052;-75
2021/07/30 16:26:54;;;;;;;2.03;1.35;;;;;;;23.63;47.91;100433.34;10473594;28;20063;-75
2021/07/30 16:31:54;;;;;;;3.35;1.92;;;;;;;22.51;47.65;100380.94;10490466;28;20057;-74
2021/07/30 16:36:55;;;;;;;2.38;2.17;;;;;;;22.47;50.19;100423.22;10489894;28;20040;-74
2021/07/30 16:41:55;;;;;;;3.28;1.90;;;;;;;22.49;50.97;100434.78;10490385;28;20124;-75
2021/07/30 16:46:56;;;;;;;5.88;1.58;;;;;;;22.47;50.02;100424.03;10491205;28;20120;-74
2021/07/30 16:51:59;;;;;;;3.72;1.92;;;;;;;22.68;49.20;100418.34;10491243;28;20456;-75
2021/07/30 16:56:59;;;;;;;1.67;1.58;;;;;;;22.35;50.40;100414.50;10469157;28;20111;-74
2021/07/30 17:01:59;;;;;;;1.77;1.50;;;;;;;22.06;53.88;100382.94;10485885;28;20047;-75
2021/07/30 17:07:00;;;;;;;6.32;1.58;;;;;;;21.99;52.02;100385.22;10486705;28;20485;-74
2021/07/30 17:12:00;;;;;;;6.60;1.83;;;;;;;21.68;51.94;100395.59;10490800;28;20129;-75
2021/07/30 17:17:01;;;;;;;3.65;1.65;;;;;;;21.71;50.54;100405.22;10489207;28;20170;-74
2021/07/30 17:22:01;;;;;;;2.05;1.75;;;;;;;21.54;52.96;100414.69;10488044;28;20443;-74
2021/07/30 17:27:02;;;;;;;4.63;1.73;;;;;;;21.09;52.80;100421.13;10449679;28;20124;-74
2021/07/30 17:32:03;;;;;;;8.93;2.47;;;;;;;21.13;53.56;100417.53;10449804;28;20141;-74
2021/07/30 17:37:03;;;;;;;2.70;1.27;;;;;;;21.25;53.67;100419.16;10485166;28;20465;-74
2021/07/30 17:42:04;;;;;;;2.38;1.52;;;;;;;20.84;52.10;100405.50;10467162;28;20101;-75
2021/07/30 17:47:04;;;;;;;2.22;1.98;;;;;;;20.99;54.30;100410.97;10487319;28;20048;-75
2021/07/30 17:52:05;;;;;;;2.00;1.40;;;;;;;21.22;53.05;100370.16;10489023;28;20393;-75
2021/07/30 17:57:05;;;;;;;5.57;2.10;;;;;;;21.18;53.46;100407.63;10455940;28;20041;-76
2021/07/30 18:02:06;;;;;;;2.00;1.70;;;;;;;20.83;54.43;100377.16;10498300;28;20067;-75
2021/07/30 18:07:06;;;;;;;3.13;2.17;;;;;;;20.62;53.40;100411.31;10499627;28;20037;-74
2021/07/30 18:12:07;;;;;;;5.25;2.00;;;;;;;20.48;55.80;100405.50;10497715;28;20036;-74
2021/07/30 18:17:08;;;;;;;2.03;1.55;;;;;;;20.13;54.46;100374.16;10495674;28;20509;-75
2021/07/30 18:22:08;;;;;;;5.80;1.75;;;;;;;19.95;57.49;100371.94;10495951;28;20032;-75
2021/07/30 18:27:08;;;;;;;1.65;1.55;;;;;;;20.14;56.39;100389.56;10495380;28;20040;-74
2021/07/30 18:32:09;;;;;;;9.93;4.78;;;;;;;19.91;56.26;100379.06;10496404;28;20052;-73
2021/07/30 18:37:09;;;;;;;11.80;2.33;;;;;;;19.78;56.60;100402.38;10496233;28;20044;-74
2021/07/30 18:42:10;;;;;;;10.45;2.03;;;;;;;19.66;59.27;100386.16;10496352;28;20174;-74
2021/07/30 18:47:13;;;;;;;1.88;1.33;;;;;;;19.72;57.02;100379.59;10495593;28;20499;-73
2021/07/30 18:52:13;;;;;;;5.35;2.70;;;;;;;20.07;58.05;100399.16;10494793;28;20036;-74
2021/07/30 18:57:13;;;;;;;10.65;2.35;;;;;;;19.96;57.65;100381.81;10495435;28;20408;-74
2021/07/30 19:02:14;;;;;;;7.13;2.20;;;;;;;19.81;59.02;100354.31;10479517;28;20068;-74
2021/07/30 19:07:14;;;;;;;14.02;2.45;;;;;;;19.76;58.53;100379.06;10494833;28;20444;-74
2021/07/30 19:12:15;;;;;;;3.30;2.35;;;;;;;19.89;57.83;100371.09;10494416;28;20040;-74
2021/07/30 19:17:15;;;;;;;12.70;2.33;;;;;;;19.63;57.96;100344.66;10477114;28;20479;-75
2021/07/30 19:22:16;;;;;;;3.63;2.00;;;;;;;19.32;57.95;100358.28;10494196;28;20056;-75
2021/07/30 19:27:16;;;;;;;7.57;2.30;;;;;;;19.64;59.20;100385.59;10492855;28;20032;-74
2021/07/30 19:32:17;;;;;;;2.83;2.63;;;;;;;19.63;58.48;100381.19;10473619;28;20163;-74
2021/07/30 19:37:17;;;;;;;8.23;2.05;;;;;;;19.63;59.24;100375.69;10476811;28;20037;-74
2021/07/30 19:42:18;;;;;;;6.85;2.55;;;;;;;19.51;59.17;100356.69;10494936;28;20032;-74
2021/07/30 19:47:18;;;;;;;10.40;3.42;;;;;;;19.16;59.79;100301.69;10495139;28;20047;-74
2021/07/30 19:52:19;;;;;;;8.23;3.80;;;;;;;19.48;60.53;100370.16;10495133;28;20036;-74
2021/07/30 19:57:19;;;;;;;14.38;4.03;;;;;;;19.31;59.62;100358.56;10475792;28;20068;-74
2021/07/30 20:02:22;;;;;;;4.50;2.95;;;;;;;19.27;61.32;100353.59;10493976;28;20064;-74
2021/07/30 20:07:23;;;;;;;3.92;2.13;;;;;;;19.51;60.02;100380.59;10493323;28;20075;-74
2021/07/30 20:12:23;;;;;;;10.90;3.30;;;;;;;19.27;61.11;100380.22;10491715;28;20404;-75
2021/07/30 20:17:24;;;;;;;3.20;2.47;;;;;;;18.88;61.74;100324.88;10493275;28;20047;-75
2021/07/30 20:22:24;;;;;;;9.18;3.22;;;;;;;19.10;61.92;100365.88;10477338;28;20486;-75
2021/07/30 20:27:25;;;;;;;8.73;3.80;;;;;;;18.17;65.24;100360.84;10495118;28;20111;-75
2021/07/30 20:32:25;;;;;;;12.93;5.13;;;;;;;17.31;70.24;100375.25;10499276;28;20109;-75
2021/07/30 20:37:26;;;;;;;10.40;4.22;;;;;;;17.17;70.03;100348.28;10460277;28;20063;-76
2021/07/30 20:42:26;;;;;;;14.25;3.13;;;;;;;17.57;68.96;100354.47;10493960;28;20064;-75
2021/07/30 20:47:26;;;;;;;12.05;4.90;;;;;;;17.56;68.51;100341.88;10474532;28;20037;-76
2021/07/30 20:52:27;;;;;;;14.00;5.28;;;;;;;17.51;69.03;100341.81;10491263;28;20109;-75
2021/07/30 20:57:28;;;;;;;7.32;4.15;;;;;;;17.70;68.02;100336.81;10472699;28;20472;-75
2021/07/30 21:02:28;;;;;;;6.25;4.40;;;;;;;17.49;69.63;100338.50;10490421;28;20037;-75
2021/07/30 21:07:29;;;;;;;17.17;6.00;;;;;;;17.50;69.18;100330.03;10471696;28;20076;-74
2021/07/30 21:12:31;;;;;;;13.75;5.97;;;;;;;17.32;70.15;100333.94;10488482;28;20036;-75
2021/07/30 21:17:32;;;;;;;17.15;6.38;;;;;;;17.13;71.40;100351.75;10455608;28;20379;-75
2021/07/30 21:22:32;;;;;;;15.05;5.47;;;;;;;16.78;74.09;100311.91;10488681;28;20033;-76
2021/07/30 21:27:32;;;;;;;14.50;5.90;;;;;;;16.87;72.39;100315.88;10470663;28;20032;-76
2021/07/30 21:32:33;;;;;;;18.65;5.32;;;;;;;16.88;73.63;100328.47;10472257;28;20140;-77
2021/07/30 21:37:33;;;;;;;10.05;4.75;;;;;;;16.66;74.54;100322.13;10480712;28;20474;-76
2021/07/30 21:42:34;;;;;;;20.42;5.65;;;;;;;16.78;73.95;100294.69;10479502;28;20119;-76
2021/07/30 21:47:35;;;;;;;10.80;5.88;;;;;;;16.87;74.58;100307.66;10462966;28;20020;-76
2021/07/30 21:52:35;;;;;;;15.25;5.88;;;;;;;16.89;74.65;100324.66;10479361;28;20100;-75
2021/07/30 21:57:36;;;;;;;24.25;6.32;;;;;;;16.89;74.31;100319.19;10496519;28;20461;-76
2021/07/30 22:02:36;;;;;;;16.17;4.60;;;;;;;16.86;74.93;100322.44;10479306;28;20039;-76
2021/07/30 22:07:37;;;;;;;10.95;5.15;;;;;;;16.98;74.35;100319.59;10478172;28;20112;-75
2021/07/30 22:12:37;;;;;;;10.98;7.03;;;;;;;16.84;73.14;100260.84;10477484;28;20044;-76
2021/07/30 22:17:38;;;;;;;12.82;6.97;;;;;;;17.19;73.41;100317.91;10460775;28;20335;-76
2021/07/30 22:22:38;;;;;;;17.52;6.20;;;;;;;17.39;71.91;100306.38;10478328;28;20102;-76
2021/07/30 22:27:39;;;;;;;10.05;5.88;;;;;;;17.18;73.86;100319.00;10475777;28;20047;-76
2021/07/30 22:32:39;;;;;;;12.10;6.82;;;;;;;17.45;72.80;100319.00;10458877;28;20409;-76
2021/07/30 22:37:40;;;;;;;12.85;8.75;;;;;;;17.60;72.64;100312.88;10476529;28;20104;-75
2021/07/30 22:42:44;;;;;;;12.98;6.43;;;;;;;17.65;72.13;100310.22;10475822;28;20064;-76
2021/07/30 22:47:45;;;;;;;28.15;7.00;;;;;;;17.69;72.21;100303.13;10475985;28;20040;-75
2021/07/30 22:52:45;;;;;;;13.38;7.53;;;;;;;17.70;72.89;100310.25;10493090;28;20033;-75
2021/07/30 22:57:46;;;;;;;18.63;7.07;;;;;;;17.41;73.00;100277.66;10460765;28;20052;-76